sensor_id;sensor_type;location;lat;lon;timestamp;temperature;humidity
51739;DHT22;37815;52.692;6.226;2023-11-21T00:04:55;11.40;99.90
51739;DHT22;37815;52.692;6.226;2023-11-21T00:09:55;11.10;99.90
51739;DHT22;37815;52.692;6.226;2023-11-21T00:14:56;11.10;99.90
51739;DHT22;37815;52.692;6.226;2023-11-21T00:19:57;11.00;99.90
51739;DHT22;37815;52.692;6.226;2023-11-21T00:24:58;11.00;99.90
51739;DHT22;37815;52.692;6.226;2023-11-21T00:29:58;11.00;99.90
51739;DHT22;37815;52.692;6.226;2023-11-21T00:34:59;11.00;99.90
51739;DHT22;37815;52.692;6.226;2023-11-21T00:39:59;11.00;99.90
51739;DHT22;37815;52.692;6.226;2023-11-21T00:45:00;11.50;99.90
51739;DHT22;37815;52.692;6.226;2023-11-21T00:50:01;11.00;99.90
51739;DHT22;37815;52.692;6.226;2023-11-21T00:55:04;11.00;99.90
51739;DHT22;37815;52.692;6.226;2023-11-21T01:00:05;11.00;99.90
51739;DHT22;37815;52.692;6.226;2023-11-21T01:05:08;11.00;99.90
51739;DHT22;37815;52.692;6.226;2023-11-21T01:10:09;11.00;99.90
51739;DHT22;37815;52.692;6.226;2023-11-21T01:15:11;11.00;99.90
51739;DHT22;37815;52.692;6.226;2023-11-21T01:20:12;11.00;99.90
51739;DHT22;37815;52.692;6.226;2023-11-21T01:25:13;11.00;99.90
51739;DHT22;37815;52.692;6.226;2023-11-21T01:30:14;11.00;99.90
51739;DHT22;37815;52.692;6.226;2023-11-21T01:35:16;11.00;99.90
51739;DHT22;37815;52.692;6.226;2023-11-21T01:40:17;11.00;99.90
51739;DHT22;37815;52.692;6.226;2023-11-21T01:45:19;11.00;99.90
51739;DHT22;37815;52.692;6.226;2023-11-21T01:50:20;11.00;99.90
51739;DHT22;37815;52.692;6.226;2023-11-21T01:55:22;11.00;99.90
51739;DHT22;37815;52.692;6.226;2023-11-21T02:00:24;11.80;99.90
51739;DHT22;37815;52.692;6.226;2023-11-21T02:05:25;11.00;99.90
51739;DHT22;37815;52.692;6.226;2023-11-21T02:10:26;11.70;99.90
51739;DHT22;37815;52.692;6.226;2023-11-21T02:15:27;11.00;99.90
51739;DHT22;37815;52.692;6.226;2023-11-21T02:20:29;11.00;99.90
51739;DHT22;37815;52.692;6.226;2023-11-21T02:25:32;11.70;99.90
51739;DHT22;37815;52.692;6.226;2023-11-21T02:30:33;11.60;99.90
51739;DHT22;37815;52.692;6.226;2023-11-21T02:35:36;11.00;99.90
51739;DHT22;37815;52.692;6.226;2023-11-21T02:40:36;11.00;99.90
51739;DHT22;37815;52.692;6.226;2023-11-21T02:45:37;11.00;99.90
51739;DHT22;37815;52.692;6.226;2023-11-21T02:50:37;11.00;99.90
51739;DHT22;37815;52.692;6.226;2023-11-21T02:55:38;10.90;99.90
51739;DHT22;37815;52.692;6.226;2023-11-21T03:00:38;11.00;99.90
51739;DHT22;37815;52.692;6.226;2023-11-21T03:05:42;11.70;99.90
51739;DHT22;37815;52.692;6.226;2023-11-21T03:10:43;11.60;99.90
51739;DHT22;37815;52.692;6.226;2023-11-21T03:15:43;11.20;99.90
51739;DHT22;37815;52.692;6.226;2023-11-21T03:20:44;11.00;99.90
51739;DHT22;37815;52.692;6.226;2023-11-21T03:25:47;11.00;99.90
51739;DHT22;37815;52.692;6.226;2023-11-21T03:30:48;11.60;99.90
51739;DHT22;37815;52.692;6.226;2023-11-21T03:35:49;10.90;99.90
51739;DHT22;37815;52.692;6.226;2023-11-21T03:40:49;11.00;99.90
51739;DHT22;37815;52.692;6.226;2023-11-21T03:45:51;11.00;99.90
51739;DHT22;37815;52.692;6.226;2023-11-21T03:50:51;11.00;99.90
51739;DHT22;37815;52.692;6.226;2023-11-21T03:55:52;11.40;99.90
51739;DHT22;37815;52.692;6.226;2023-11-21T04:00:52;11.80;99.90
51739;DHT22;37815;52.692;6.226;2023-11-21T04:05:53;11.00;99.90
51739;DHT22;37815;52.692;6.226;2023-11-21T04:10:54;11.00;99.90
51739;DHT22;37815;52.692;6.226;2023-11-21T04:15:55;10.90;99.90
51739;DHT22;37815;52.692;6.226;2023-11-21T04:20:56;11.00;99.90
51739;DHT22;37815;52.692;6.226;2023-11-21T04:25:58;11.90;99.90
51739;DHT22;37815;52.692;6.226;2023-11-21T04:30:59;10.90;99.90
51739;DHT22;37815;52.692;6.226;2023-11-21T04:36:00;11.80;99.90
51739;DHT22;37815;52.692;6.226;2023-11-21T04:41:00;10.90;99.90
51739;DHT22;37815;52.692;6.226;2023-11-21T04:46:01;11.00;99.90
51739;DHT22;37815;52.692;6.226;2023-11-21T04:51:02;10.90;99.90
51739;DHT22;37815;52.692;6.226;2023-11-21T04:56:04;10.90;99.90
51739;DHT22;37815;52.692;6.226;2023-11-21T05:01:07;10.90;99.90
51739;DHT22;37815;52.692;6.226;2023-11-21T05:06:10;10.90;99.90
51739;DHT22;37815;52.692;6.226;2023-11-21T05:11:11;10.90;99.90
51739;DHT22;37815;52.692;6.226;2023-11-21T05:16:11;10.90;99.90
51739;DHT22;37815;52.692;6.226;2023-11-21T05:21:13;10.90;99.90
51739;DHT22;37815;52.692;6.226;2023-11-21T05:26:13;11.00;99.90
51739;DHT22;37815;52.692;6.226;2023-11-21T05:31:14;10.90;99.90
51739;DHT22;37815;52.692;6.226;2023-11-21T05:36:15;10.90;99.90
51739;DHT22;37815;52.692;6.226;2023-11-21T05:41:15;11.00;99.90
51739;DHT22;37815;52.692;6.226;2023-11-21T05:46:16;11.00;99.90
51739;DHT22;37815;52.692;6.226;2023-11-21T05:51:16;11.60;99.90
51739;DHT22;37815;52.692;6.226;2023-11-21T05:56:19;11.00;99.90
51739;DHT22;37815;52.692;6.226;2023-11-21T06:01:19;10.90;99.90
51739;DHT22;37815;52.692;6.226;2023-11-21T06:06:21;11.80;99.90
51739;DHT22;37815;52.692;6.226;2023-11-21T06:11:22;11.00;99.90
51739;DHT22;37815;52.692;6.226;2023-11-21T06:16:24;11.50;99.90
51739;DHT22;37815;52.692;6.226;2023-11-21T06:21:24;11.00;99.90
51739;DHT22;37815;52.692;6.226;2023-11-21T06:26:25;11.70;99.90
51739;DHT22;37815;52.692;6.226;2023-11-21T06:31:27;11.40;99.90
51739;DHT22;37815;52.692;6.226;2023-11-21T06:36:27;11.00;99.90
51739;DHT22;37815;52.692;6.226;2023-11-21T06:41:28;11.30;99.90
51739;DHT22;37815;52.692;6.226;2023-11-21T06:46:30;11.60;99.90
51739;DHT22;37815;52.692;6.226;2023-11-21T06:51:30;11.80;99.90
51739;DHT22;37815;52.692;6.226;2023-11-21T06:56:31;11.00;99.90
51739;DHT22;37815;52.692;6.226;2023-11-21T07:01:31;11.00;99.90
51739;DHT22;37815;52.692;6.226;2023-11-21T07:06:39;11.40;99.90
51739;DHT22;37815;52.692;6.226;2023-11-21T07:11:39;11.00;99.90
51739;DHT22;37815;52.692;6.226;2023-11-21T07:16:40;11.10;99.90
51739;DHT22;37815;52.692;6.226;2023-11-21T07:21:41;11.00;99.90
51739;DHT22;37815;52.692;6.226;2023-11-21T07:26:41;11.00;99.90
51739;DHT22;37815;52.692;6.226;2023-11-21T07:31:42;11.00;99.90
51739;DHT22;37815;52.692;6.226;2023-11-21T07:36:43;11.10;99.90
51739;DHT22;37815;52.692;6.226;2023-11-21T07:41:43;11.20;99.90
51739;DHT22;37815;52.692;6.226;2023-11-21T07:46:48;11.00;99.90
51739;DHT22;37815;52.692;6.226;2023-11-21T07:51:50;11.80;99.90
51739;DHT22;37815;52.692;6.226;2023-11-21T07:56:51;11.80;99.90
51739;DHT22;37815;52.692;6.226;2023-11-21T08:01:51;12.00;99.90
51739;DHT22;37815;52.692;6.226;2023-11-21T08:06:52;11.70;99.90
51739;DHT22;37815;52.692;6.226;2023-11-21T08:11:52;11.00;99.90
51739;DHT22;37815;52.692;6.226;2023-11-21T08:16:53;11.00;99.90
51739;DHT22;37815;52.692;6.226;2023-11-21T08:21:57;11.70;99.90
51739;DHT22;37815;52.692;6.226;2023-11-21T08:26:59;11.90;99.90
51739;DHT22;37815;52.692;6.226;2023-11-21T08:32:00;11.10;99.90
51739;DHT22;37815;52.692;6.226;2023-11-21T08:37:01;11.70;99.90
51739;DHT22;37815;52.692;6.226;2023-11-21T08:42:01;11.00;99.90
51739;DHT22;37815;52.692;6.226;2023-11-21T08:47:03;11.00;99.90
51739;DHT22;37815;52.692;6.226;2023-11-21T08:52:05;11.00;99.90
51739;DHT22;37815;52.692;6.226;2023-11-21T08:57:07;11.30;99.90
51739;DHT22;37815;52.692;6.226;2023-11-21T09:02:10;11.00;99.90
51739;DHT22;37815;52.692;6.226;2023-11-21T09:07:11;11.00;99.90
51739;DHT22;37815;52.692;6.226;2023-11-21T09:12:12;11.00;99.90
51739;DHT22;37815;52.692;6.226;2023-11-21T09:17:13;11.20;99.90
51739;DHT22;37815;52.692;6.226;2023-11-21T09:22:14;11.10;99.90
51739;DHT22;37815;52.692;6.226;2023-11-21T09:27:15;11.90;99.90
51739;DHT22;37815;52.692;6.226;2023-11-21T09:32:17;11.20;99.90
51739;DHT22;37815;52.692;6.226;2023-11-21T09:37:19;11.90;99.90
51739;DHT22;37815;52.692;6.226;2023-11-21T09:42:28;11.60;99.90
51739;DHT22;37815;52.692;6.226;2023-11-21T09:47:31;11.70;99.90
51739;DHT22;37815;52.692;6.226;2023-11-21T09:52:38;12.20;99.90
51739;DHT22;37815;52.692;6.226;2023-11-21T09:57:41;12.30;99.90
51739;DHT22;37815;52.692;6.226;2023-11-21T10:02:42;11.80;99.90
51739;DHT22;37815;52.692;6.226;2023-11-21T10:07:46;12.30;99.90
51739;DHT22;37815;52.692;6.226;2023-11-21T10:12:50;12.00;99.90
51739;DHT22;37815;52.692;6.226;2023-11-21T10:17:55;12.00;99.90
51739;DHT22;37815;52.692;6.226;2023-11-21T10:22:55;12.20;99.90
51739;DHT22;37815;52.692;6.226;2023-11-21T10:27:59;12.20;99.90
51739;DHT22;37815;52.692;6.226;2023-11-21T10:33:01;12.10;99.90
51739;DHT22;37815;52.692;6.226;2023-11-21T10:38:02;11.30;99.90
51739;DHT22;37815;52.692;6.226;2023-11-21T10:43:08;11.70;99.90
51739;DHT22;37815;52.692;6.226;2023-11-21T10:48:10;11.90;99.90
51739;DHT22;37815;52.692;6.226;2023-11-21T10:53:12;11.70;99.90
51739;DHT22;37815;52.692;6.226;2023-11-21T10:58:14;11.90;99.90
51739;DHT22;37815;52.692;6.226;2023-11-21T11:03:16;11.30;99.90
51739;DHT22;37815;52.692;6.226;2023-11-21T11:08:19;12.10;99.90
51739;DHT22;37815;52.692;6.226;2023-11-21T11:13:26;11.30;99.90
51739;DHT22;37815;52.692;6.226;2023-11-21T11:18:30;11.50;99.90
51739;DHT22;37815;52.692;6.226;2023-11-21T11:23:49;11.30;99.90
51739;DHT22;37815;52.692;6.226;2023-11-21T11:29:23;11.20;99.90
51739;DHT22;37815;52.692;6.226;2023-11-21T11:39:37;11.70;99.90
51739;DHT22;37815;52.692;6.226;2023-11-21T11:55:18;11.30;99.90
51739;DHT22;37815;52.692;6.226;2023-11-21T12:00:22;11.40;99.90
51739;DHT22;37815;52.692;6.226;2023-11-21T12:05:27;11.30;99.90
51739;DHT22;37815;52.692;6.226;2023-11-21T12:10:35;12.00;99.90
51739;DHT22;37815;52.692;6.226;2023-11-21T12:15:36;11.70;99.90
51739;DHT22;37815;52.692;6.226;2023-11-21T12:20:37;11.20;99.90
51739;DHT22;37815;52.692;6.226;2023-11-21T12:25:41;11.20;99.90
51739;DHT22;37815;52.692;6.226;2023-11-21T12:30:43;11.30;99.90
51739;DHT22;37815;52.692;6.226;2023-11-21T12:35:44;11.70;99.90
51739;DHT22;37815;52.692;6.226;2023-11-21T12:40:44;11.60;99.90
51739;DHT22;37815;52.692;6.226;2023-11-21T12:45:45;11.30;99.90
51739;DHT22;37815;52.692;6.226;2023-11-21T12:50:45;11.20;99.90
51739;DHT22;37815;52.692;6.226;2023-11-21T12:55:49;11.80;99.90
51739;DHT22;37815;52.692;6.226;2023-11-21T13:00:51;11.80;99.90
51739;DHT22;37815;52.692;6.226;2023-11-21T13:05:54;11.40;99.90
51739;DHT22;37815;52.692;6.226;2023-11-21T13:10:57;12.20;99.90
51739;DHT22;37815;52.692;6.226;2023-11-21T13:16:03;11.20;99.90
51739;DHT22;37815;52.692;6.226;2023-11-21T13:21:05;11.20;99.90
51739;DHT22;37815;52.692;6.226;2023-11-21T13:26:17;11.20;99.90
51739;DHT22;37815;52.692;6.226;2023-11-21T13:31:24;11.50;99.90
51739;DHT22;37815;52.692;6.226;2023-11-21T13:36:31;11.20;99.90
51739;DHT22;37815;52.692;6.226;2023-11-21T13:41:35;11.90;99.90
51739;DHT22;37815;52.692;6.226;2023-11-21T13:46:38;11.70;99.90
51739;DHT22;37815;52.692;6.226;2023-11-21T13:51:39;11.90;99.90
51739;DHT22;37815;52.692;6.226;2023-11-21T13:56:46;12.00;99.90
51739;DHT22;37815;52.692;6.226;2023-11-21T14:01:50;12.00;99.90
51739;DHT22;37815;52.692;6.226;2023-11-21T14:07:00;11.80;99.90
51739;DHT22;37815;52.692;6.226;2023-11-21T14:12:14;11.20;99.90
51739;DHT22;37815;52.692;6.226;2023-11-21T14:17:16;11.20;99.90
51739;DHT22;37815;52.692;6.226;2023-11-21T14:22:17;11.50;99.90
51739;DHT22;37815;52.692;6.226;2023-11-21T14:27:17;11.20;99.90
51739;DHT22;37815;52.692;6.226;2023-11-21T14:32:18;11.20;99.90
51739;DHT22;37815;52.692;6.226;2023-11-21T14:37:19;11.40;99.90
51739;DHT22;37815;52.692;6.226;2023-11-21T14:42:20;11.70;99.90
51739;DHT22;37815;52.692;6.226;2023-11-21T14:47:25;11.20;99.90
51739;DHT22;37815;52.692;6.226;2023-11-21T14:52:27;12.20;99.90
51739;DHT22;37815;52.692;6.226;2023-11-21T14:57:34;11.20;99.90
51739;DHT22;37815;52.692;6.226;2023-11-21T15:02:36;12.20;99.90
51739;DHT22;37815;52.692;6.226;2023-11-21T15:07:51;12.10;99.90
51739;DHT22;37815;52.692;6.226;2023-11-21T15:12:56;11.10;99.90
51739;DHT22;37815;52.692;6.226;2023-11-21T15:17:58;12.10;99.90
51739;DHT22;37815;52.692;6.226;2023-11-21T15:22:59;11.10;99.90
51739;DHT22;37815;52.692;6.226;2023-11-21T15:28:01;11.10;99.90
51739;DHT22;37815;52.692;6.226;2023-11-21T15:33:05;11.10;99.90
51739;DHT22;37815;52.692;6.226;2023-11-21T15:38:08;11.20;99.90
51739;DHT22;37815;52.692;6.226;2023-11-21T15:43:09;11.10;99.90
51739;DHT22;37815;52.692;6.226;2023-11-21T15:48:09;11.00;99.90
51739;DHT22;37815;52.692;6.226;2023-11-21T15:53:10;11.00;99.90
51739;DHT22;37815;52.692;6.226;2023-11-21T15:58:11;11.00;99.90
51739;DHT22;37815;52.692;6.226;2023-11-21T16:03:11;11.00;99.90
51739;DHT22;37815;52.692;6.226;2023-11-21T16:08:14;11.00;99.90
51739;DHT22;37815;52.692;6.226;2023-11-21T16:13:14;11.00;99.90
51739;DHT22;37815;52.692;6.226;2023-11-21T16:18:16;10.90;99.90
51739;DHT22;37815;52.692;6.226;2023-11-21T16:23:17;11.00;99.90
51739;DHT22;37815;52.692;6.226;2023-11-21T16:28:17;10.90;99.90
51739;DHT22;37815;52.692;6.226;2023-11-21T16:33:18;11.00;99.90
51739;DHT22;37815;52.692;6.226;2023-11-21T16:38:20;10.90;99.90
51739;DHT22;37815;52.692;6.226;2023-11-21T16:43:20;10.90;99.90
51739;DHT22;37815;52.692;6.226;2023-11-21T16:48:21;10.90;99.90
51739;DHT22;37815;52.692;6.226;2023-11-21T16:53:22;10.90;99.90
51739;DHT22;37815;52.692;6.226;2023-11-21T16:58:22;10.90;99.90
51739;DHT22;37815;52.692;6.226;2023-11-21T17:03:23;10.90;99.90
51739;DHT22;37815;52.692;6.226;2023-11-21T17:08:23;10.80;99.90
51739;DHT22;37815;52.692;6.226;2023-11-21T17:13:24;10.80;99.90
51739;DHT22;37815;52.692;6.226;2023-11-21T17:18:25;10.80;99.90
51739;DHT22;37815;52.692;6.226;2023-11-21T17:23:26;10.80;99.90
51739;DHT22;37815;52.692;6.226;2023-11-21T17:28:29;10.80;99.90
51739;DHT22;37815;52.692;6.226;2023-11-21T17:33:30;10.70;99.90
51739;DHT22;37815;52.692;6.226;2023-11-21T17:38:32;10.70;99.90
51739;DHT22;37815;52.692;6.226;2023-11-21T17:43:32;10.70;99.90
51739;DHT22;37815;52.692;6.226;2023-11-21T17:48:37;10.70;99.90
51739;DHT22;37815;52.692;6.226;2023-11-21T17:53:41;10.70;99.90
51739;DHT22;37815;52.692;6.226;2023-11-21T17:58:42;10.70;99.90
51739;DHT22;37815;52.692;6.226;2023-11-21T18:03:43;10.70;99.90
51739;DHT22;37815;52.692;6.226;2023-11-21T18:08:43;10.60;99.90
51739;DHT22;37815;52.692;6.226;2023-11-21T18:13:44;10.60;99.90
51739;DHT22;37815;52.692;6.226;2023-11-21T18:18:44;10.60;99.90
51739;DHT22;37815;52.692;6.226;2023-11-21T18:23:45;10.50;99.90
51739;DHT22;37815;52.692;6.226;2023-11-21T18:28:46;10.70;99.90
51739;DHT22;37815;52.692;6.226;2023-11-21T18:33:47;10.60;99.90
51739;DHT22;37815;52.692;6.226;2023-11-21T18:38:47;10.60;99.90
51739;DHT22;37815;52.692;6.226;2023-11-21T18:43:49;10.50;99.90
51739;DHT22;37815;52.692;6.226;2023-11-21T18:48:50;10.60;99.90
51739;DHT22;37815;52.692;6.226;2023-11-21T18:53:52;10.60;99.90
51739;DHT22;37815;52.692;6.226;2023-11-21T18:58:53;10.50;99.90
51739;DHT22;37815;52.692;6.226;2023-11-21T19:03:54;10.50;99.90
51739;DHT22;37815;52.692;6.226;2023-11-21T19:08:55;10.50;99.90
51739;DHT22;37815;52.692;6.226;2023-11-21T19:13:55;10.50;99.90
51739;DHT22;37815;52.692;6.226;2023-11-21T19:18:56;10.40;99.90
51739;DHT22;37815;52.692;6.226;2023-11-21T19:23:58;10.40;99.90
51739;DHT22;37815;52.692;6.226;2023-11-21T19:28:58;10.40;99.90
51739;DHT22;37815;52.692;6.226;2023-11-21T19:33:59;10.30;99.90
51739;DHT22;37815;52.692;6.226;2023-11-21T19:39:00;10.30;99.90
51739;DHT22;37815;52.692;6.226;2023-11-21T19:44:00;11.10;99.90
51739;DHT22;37815;52.692;6.226;2023-11-21T19:49:01;10.30;99.90
51739;DHT22;37815;52.692;6.226;2023-11-21T19:54:03;10.30;99.90
51739;DHT22;37815;52.692;6.226;2023-11-21T19:59:03;10.20;99.90
51739;DHT22;37815;52.692;6.226;2023-11-21T20:04:04;10.20;99.90
51739;DHT22;37815;52.692;6.226;2023-11-21T20:09:05;10.20;99.90
51739;DHT22;37815;52.692;6.226;2023-11-21T20:14:05;10.20;99.90
51739;DHT22;37815;52.692;6.226;2023-11-21T20:19:06;10.20;99.90
51739;DHT22;37815;52.692;6.226;2023-11-21T20:24:08;10.10;99.90
51739;DHT22;37815;52.692;6.226;2023-11-21T20:29:12;10.10;99.90
51739;DHT22;37815;52.692;6.226;2023-11-21T20:34:12;10.10;99.90
51739;DHT22;37815;52.692;6.226;2023-11-21T20:39:13;10.10;99.90
51739;DHT22;37815;52.692;6.226;2023-11-21T20:44:16;10.00;99.90
51739;DHT22;37815;52.692;6.226;2023-11-21T20:49:17;10.00;99.90
51739;DHT22;37815;52.692;6.226;2023-11-21T20:54:18;10.00;99.90
51739;DHT22;37815;52.692;6.226;2023-11-21T20:59:18;10.00;99.90
51739;DHT22;37815;52.692;6.226;2023-11-21T21:04:19;10.00;99.90
51739;DHT22;37815;52.692;6.226;2023-11-21T21:09:21;10.00;99.90
51739;DHT22;37815;52.692;6.226;2023-11-21T21:14:22;10.00;99.90
51739;DHT22;37815;52.692;6.226;2023-11-21T21:19:27;10.00;99.90
51739;DHT22;37815;52.692;6.226;2023-11-21T21:24:28;9.90;99.90
51739;DHT22;37815;52.692;6.226;2023-11-21T21:29:28;9.90;99.90
51739;DHT22;37815;52.692;6.226;2023-11-21T21:34:29;9.90;99.90
51739;DHT22;37815;52.692;6.226;2023-11-21T21:39:29;9.90;99.90
51739;DHT22;37815;52.692;6.226;2023-11-21T21:44:30;9.90;99.90
51739;DHT22;37815;52.692;6.226;2023-11-21T21:49:33;9.90;99.90
51739;DHT22;37815;52.692;6.226;2023-11-21T21:54:34;9.90;99.90
51739;DHT22;37815;52.692;6.226;2023-11-21T21:59:34;9.80;99.90
51739;DHT22;37815;52.692;6.226;2023-11-21T22:04:35;9.80;99.90
51739;DHT22;37815;52.692;6.226;2023-11-21T22:09:36;9.80;99.90
51739;DHT22;37815;52.692;6.226;2023-11-21T22:14:37;9.80;99.90
51739;DHT22;37815;52.692;6.226;2023-11-21T22:19:37;9.80;99.90
51739;DHT22;37815;52.692;6.226;2023-11-21T22:24:38;9.80;99.90
51739;DHT22;37815;52.692;6.226;2023-11-21T22:29:38;9.80;99.90
51739;DHT22;37815;52.692;6.226;2023-11-21T22:34:40;9.70;99.90
51739;DHT22;37815;52.692;6.226;2023-11-21T22:39:41;9.80;99.90
51739;DHT22;37815;52.692;6.226;2023-11-21T22:44:42;9.70;99.90
51739;DHT22;37815;52.692;6.226;2023-11-21T22:49:42;9.70;99.90
51739;DHT22;37815;52.692;6.226;2023-11-21T22:54:43;9.70;99.90
51739;DHT22;37815;52.692;6.226;2023-11-21T22:59:44;9.70;99.90
51739;DHT22;37815;52.692;6.226;2023-11-21T23:04:45;9.70;99.90
51739;DHT22;37815;52.692;6.226;2023-11-21T23:09:45;9.70;99.90
51739;DHT22;37815;52.692;6.226;2023-11-21T23:14:46;9.60;99.90
51739;DHT22;37815;52.692;6.226;2023-11-21T23:19:47;9.60;99.90
51739;DHT22;37815;52.692;6.226;2023-11-21T23:24:48;9.70;99.90
51739;DHT22;37815;52.692;6.226;2023-11-21T23:29:49;9.60;99.90
51739;DHT22;37815;52.692;6.226;2023-11-21T23:34:53;9.60;99.90
51739;DHT22;37815;52.692;6.226;2023-11-21T23:39:54;9.60;99.90
51739;DHT22;37815;52.692;6.226;2023-11-21T23:44:55;9.60;99.90
51739;DHT22;37815;52.692;6.226;2023-11-21T23:49:56;9.60;99.90
51739;DHT22;37815;52.692;6.226;2023-11-21T23:54:58;9.60;99.90
51739;DHT22;37815;52.692;6.226;2023-11-21T23:59:59;9.70;99.90
